createdAt,value
2018-05-14T00:01:20.235Z,19.27
2018-05-14T00:03:47.779Z,18.00
2018-05-14T00:06:15.897Z,16.63
2018-05-14T00:08:43.349Z,16.40
2018-05-14T00:11:10.804Z,14.50
2018-05-14T00:13:38.245Z,15.43
2018-05-14T00:16:05.703Z,15.50
2018-05-14T00:18:33.150Z,15.40
2018-05-14T00:21:00.607Z,14.20
2018-05-14T00:23:28.061Z,13.80
2018-05-14T00:25:55.516Z,13.67
2018-05-14T00:28:22.972Z,13.67
2018-05-14T00:30:50.430Z,14.20
2018-05-14T00:33:17.902Z,12.80
2018-05-14T00:35:45.347Z,12.93
2018-05-14T00:38:12.802Z,12.60
2018-05-14T00:40:41.009Z,13.20
2018-05-14T00:43:08.455Z,12.40
2018-05-14T00:45:35.902Z,11.37
2018-05-14T00:48:03.345Z,11.17
2018-05-14T00:50:30.803Z,10.50
2018-05-14T00:52:58.261Z,11.50
2018-05-14T00:55:25.698Z,10.90
2018-05-14T00:57:53.174Z,11.57
2018-05-14T01:00:21.373Z,13.40
2018-05-14T01:02:48.830Z,11.50
2018-05-14T01:05:16.278Z,13.50
2018-05-14T01:07:43.734Z,13.30
2018-05-14T01:10:11.172Z,13.27
2018-05-14T01:12:38.628Z,13.90
2018-05-14T01:15:06.085Z,14.57
2018-05-14T01:17:34.301Z,13.40
2018-05-14T01:20:01.759Z,14.40
2018-05-14T01:22:29.219Z,13.67
2018-05-14T01:25:02.304Z,13.83
2018-05-14T01:27:29.774Z,15.40
2018-05-14T01:29:57.219Z,14.40
2018-05-14T01:32:24.669Z,13.17
2018-05-14T01:34:52.115Z,12.50
2018-05-14T01:37:19.567Z,12.60
2018-05-14T01:39:47.027Z,13.43
2018-05-14T01:42:14.482Z,13.20
2018-05-14T01:44:41.938Z,13.57
2018-05-14T01:47:10.160Z,13.10
2018-05-14T01:49:37.610Z,14.90
2018-05-14T01:52:05.059Z,15.90
2018-05-14T01:54:32.502Z,15.90
2018-05-14T01:56:59.959Z,15.67
2018-05-14T01:59:27.394Z,15.40
2018-05-14T02:01:54.851Z,15.53
2018-05-14T02:04:22.308Z,16.77
2018-05-14T02:06:50.592Z,15.80
2018-05-14T02:09:18.727Z,18.27
2018-05-14T02:11:46.940Z,16.83
2018-05-14T02:14:14.380Z,16.53
2018-05-14T02:16:41.855Z,16.10
2018-05-14T02:19:09.302Z,16.70
2018-05-14T02:21:36.737Z,17.60
2018-05-14T02:24:04.189Z,17.17
2018-05-14T02:26:31.662Z,17.03
2018-05-14T02:28:59.103Z,17.53
2018-05-14T02:31:26.569Z,16.70
2018-05-14T02:33:53.995Z,17.57
2018-05-14T02:36:21.449Z,16.67
2018-05-14T02:38:48.897Z,15.93
2018-05-14T02:41:16.338Z,14.60
2018-05-14T02:43:43.810Z,16.90
2018-05-14T02:46:11.249Z,16.93
2018-05-14T02:48:38.710Z,16.83
2018-05-14T02:51:06.158Z,17.23
2018-05-14T02:53:33.622Z,17.03
2018-05-14T02:56:01.838Z,16.93
2018-05-14T02:58:29.283Z,16.57
2018-05-14T03:00:56.727Z,15.97
2018-05-14T03:03:24.174Z,16.20
2018-05-14T03:05:51.615Z,14.93
2018-05-14T03:08:19.058Z,15.97
2018-05-14T03:10:46.504Z,16.03
2018-05-14T03:13:13.960Z,14.40
2018-05-14T03:15:41.413Z,13.67
2018-05-14T03:18:09.626Z,14.37
2018-05-14T03:20:37.083Z,14.07
2018-05-14T03:23:04.521Z,14.13
2018-05-14T03:25:31.968Z,13.93
2018-05-14T03:27:59.433Z,13.23
2018-05-14T03:30:26.876Z,12.63
2018-05-14T03:32:54.333Z,13.70
2018-05-14T03:35:21.762Z,13.57
2018-05-14T03:37:49.276Z,13.70
2018-05-14T03:40:16.715Z,13.70
2018-05-14T03:42:44.180Z,13.70
2018-05-14T03:45:11.611Z,13.87
2018-05-14T03:47:39.068Z,13.10
2018-05-14T03:50:06.497Z,12.73
2018-05-14T03:52:33.950Z,12.90
2018-05-14T03:55:01.395Z,13.53
2018-05-14T03:57:28.851Z,12.70
2018-05-14T04:00:08.169Z,12.97
2018-05-14T04:02:47.464Z,13.13
2018-05-14T04:05:19.858Z,14.63
2018-05-14T04:07:48.076Z,15.03
2018-05-14T04:10:15.527Z,14.87
2018-05-14T04:12:42.969Z,13.47
2018-05-14T04:15:10.425Z,13.83
2018-05-14T04:17:37.885Z,15.97
2018-05-14T04:20:06.181Z,14.77
2018-05-14T04:22:33.634Z,15.53
2018-05-14T04:25:01.095Z,16.47
2018-05-14T04:27:28.569Z,16.17
2018-05-14T04:29:56.009Z,15.87
2018-05-14T04:32:23.465Z,15.00
2018-05-14T04:34:50.926Z,13.53
2018-05-14T04:37:18.353Z,13.53
2018-05-14T04:39:46.564Z,13.47
2018-05-14T04:42:14.011Z,13.57
2018-05-14T04:44:41.472Z,13.40
2018-05-14T04:47:08.914Z,11.90
2018-05-14T04:49:36.366Z,15.07
2018-05-14T04:52:03.814Z,14.20
2018-05-14T04:54:31.290Z,13.83
2018-05-14T04:56:59.495Z,13.57
2018-05-14T04:59:26.947Z,12.53
2018-05-14T05:01:54.374Z,12.27
2018-05-14T05:04:21.817Z,13.47
2018-05-14T05:06:49.270Z,13.50
2018-05-14T05:09:16.735Z,13.67
2018-05-14T05:11:44.185Z,15.30
2018-05-14T05:14:11.646Z,13.40
2018-05-14T05:16:39.099Z,12.47
2018-05-14T05:19:06.559Z,12.30
2018-05-14T05:21:34.016Z,14.33
2018-05-14T05:24:01.491Z,13.87
2018-05-14T05:26:28.944Z,15.03
2018-05-14T05:28:57.166Z,13.70
2018-05-14T05:31:24.667Z,14.00
2018-05-14T05:33:52.123Z,14.67
2018-05-14T05:36:19.581Z,15.00
2018-05-14T05:38:47.039Z,14.20
2018-05-14T05:41:14.494Z,15.53
2018-05-14T05:43:41.953Z,14.43
2018-05-14T05:46:09.426Z,13.70
2018-05-14T05:48:37.639Z,14.20
2018-05-14T05:51:05.102Z,15.20
2018-05-14T05:53:32.552Z,13.60
2018-05-14T05:56:00.007Z,14.53
2018-05-14T05:58:28.238Z,15.20
2018-05-14T06:00:55.690Z,13.70
2018-05-14T06:03:23.144Z,13.63
2018-05-14T06:05:50.593Z,15.27
2018-05-14T06:08:18.805Z,15.77
2018-05-14T06:10:46.249Z,13.87
2018-05-14T06:13:13.706Z,13.80
2018-05-14T06:15:41.153Z,14.60
2018-05-14T06:18:08.622Z,15.07
2018-05-14T06:20:36.847Z,16.67
2018-05-14T06:23:04.307Z,19.83
2018-05-14T06:25:31.819Z,161.67
2018-05-14T06:27:59.295Z,15.53
2018-05-14T06:30:26.774Z,16.67
2018-05-14T06:32:54.226Z,18.10
2018-05-14T06:35:21.695Z,19.17
2018-05-14T06:37:49.142Z,15.40
2018-05-14T06:40:16.682Z,14.47
2018-05-14T06:42:44.053Z,16.03
2018-05-14T06:45:11.505Z,16.23
2018-05-14T06:47:38.962Z,14.03
2018-05-14T06:50:07.174Z,16.17
2018-05-14T06:52:34.613Z,13.97
2018-05-14T06:55:02.083Z,14.67
2018-05-14T06:57:29.531Z,14.90
2018-05-14T06:59:56.980Z,12.90
2018-05-14T07:02:24.419Z,13.40
2018-05-14T07:04:51.878Z,13.97
2018-05-14T07:07:20.091Z,14.27
2018-05-14T07:09:47.546Z,14.23
2018-05-14T07:12:15.007Z,14.07
2018-05-14T07:14:42.460Z,14.70
2018-05-14T07:17:10.666Z,15.80
2018-05-14T07:19:38.122Z,14.13
2018-05-14T07:22:05.575Z,14.97
2018-05-14T07:24:33.014Z,14.03
2018-05-14T07:27:00.458Z,14.30
2018-05-14T07:29:27.998Z,13.53
2018-05-14T07:31:55.451Z,15.43
2018-05-14T07:34:22.917Z,12.50
2018-05-14T07:36:50.361Z,13.37
2018-05-14T07:39:17.815Z,13.47
2018-05-14T07:41:46.026Z,11.97
2018-05-14T07:44:13.486Z,13.53
2018-05-14T07:46:40.943Z,12.63
2018-05-14T07:49:08.390Z,13.43
2018-05-14T07:51:35.839Z,12.07
2018-05-14T07:54:03.298Z,12.00
2018-05-14T07:56:31.506Z,21.60
2018-05-14T07:58:58.936Z,20.00
2018-05-14T08:01:26.399Z,17.27
2018-05-14T08:03:53.854Z,13.30
2018-05-14T08:06:21.302Z,14.53
2018-05-14T08:08:48.744Z,13.97
2018-05-14T08:11:16.217Z,14.93
2018-05-14T08:13:44.431Z,16.00
2018-05-14T08:16:11.867Z,14.90
2018-05-14T08:18:39.358Z,14.77
2018-05-14T08:21:06.819Z,15.90
2018-05-14T08:23:34.331Z,17.10
2018-05-14T08:26:01.749Z,16.70
2018-05-14T08:28:29.201Z,16.57
2018-05-14T08:30:56.663Z,17.10
2018-05-14T08:33:24.128Z,15.60
2018-05-14T08:35:52.353Z,18.23
2018-05-14T08:38:19.790Z,17.33
2018-05-14T08:40:47.245Z,17.27
2018-05-14T08:43:14.715Z,18.70
2018-05-14T08:45:42.161Z,18.30
2018-05-14T08:48:09.612Z,17.70
2018-05-14T08:50:37.058Z,18.83
2018-05-14T08:53:04.495Z,19.93
2018-05-14T08:55:31.946Z,22.97
2018-05-14T08:57:59.381Z,18.70
2018-05-14T09:00:26.822Z,18.90
2018-05-14T09:02:54.316Z,16.97
2018-05-14T09:05:21.780Z,18.20
2018-05-14T09:07:49.209Z,17.37
2018-05-14T09:10:16.654Z,18.27
2018-05-14T09:12:44.098Z,19.20
2018-05-14T09:15:11.541Z,18.83
2018-05-14T09:17:38.991Z,25.97
2018-05-14T09:20:06.493Z,30.13
2018-05-14T09:22:33.938Z,21.50
2018-05-14T09:25:01.386Z,20.73
2018-05-14T09:27:28.824Z,19.90
2018-05-14T09:29:56.658Z,18.33
2018-05-14T09:32:24.107Z,20.03
2018-05-14T09:34:51.551Z,19.30
2018-05-14T09:37:18.996Z,17.80
2018-05-14T09:39:46.451Z,19.10
2018-05-14T09:42:13.895Z,21.70
2018-05-14T09:44:41.339Z,19.87
2018-05-14T09:47:08.836Z,22.87
2018-05-14T09:49:36.327Z,22.93
2018-05-14T09:52:03.774Z,24.33
2018-05-14T09:54:31.286Z,21.60
2018-05-14T09:56:58.736Z,25.13
2018-05-14T09:59:26.205Z,22.70
2018-05-14T10:01:53.638Z,22.67
2018-05-14T10:04:21.098Z,23.07
2018-05-14T10:06:48.587Z,24.23
2018-05-14T10:09:16.809Z,23.57
2018-05-14T10:11:44.266Z,22.87
2018-05-14T10:14:11.718Z,26.10
2018-05-14T10:16:39.926Z,28.00
2018-05-14T10:19:07.381Z,37.60
2018-05-14T10:21:34.842Z,27.70
2018-05-14T10:24:02.294Z,28.17
2018-05-14T10:26:29.754Z,27.40
2018-05-14T10:28:57.950Z,27.60
2018-05-14T10:31:25.398Z,26.37
2018-05-14T10:33:52.847Z,28.53
2018-05-14T10:36:20.304Z,25.90
2018-05-14T10:38:47.746Z,27.33
2018-05-14T10:41:15.209Z,28.30
2018-05-14T10:43:42.667Z,23.80
2018-05-14T10:46:10.870Z,25.33
2018-05-14T10:48:38.302Z,25.87
2018-05-14T10:51:05.767Z,24.63
2018-05-14T10:53:33.217Z,24.60
2018-05-14T10:56:00.656Z,25.03
2018-05-14T10:58:28.102Z,26.47
2018-05-14T11:00:56.310Z,25.20
2018-05-14T11:03:24.534Z,26.00
2018-05-14T11:05:51.982Z,30.03
2018-05-14T11:08:19.446Z,28.00
2018-05-14T11:10:47.670Z,29.00
2018-05-14T11:13:15.118Z,29.03
2018-05-14T11:15:42.595Z,28.83
2018-05-14T11:18:10.058Z,27.70
2018-05-14T11:20:37.522Z,27.80
2018-05-14T11:23:04.949Z,28.43
2018-05-14T11:25:32.406Z,28.60
2018-05-14T11:27:59.869Z,29.60
2018-05-14T11:30:27.335Z,25.97
2018-05-14T11:32:54.827Z,27.37
2018-05-14T11:35:22.336Z,27.77
2018-05-14T11:37:49.712Z,28.27
2018-05-14T11:40:17.150Z,26.80
2018-05-14T11:42:44.791Z,28.73
2018-05-14T11:45:13.002Z,29.20
2018-05-14T11:47:40.437Z,30.30
2018-05-14T11:50:07.886Z,31.03
2018-05-14T11:52:35.408Z,30.77
2018-05-14T11:55:02.869Z,27.97
2018-05-14T11:57:30.324Z,28.40
2018-05-14T11:59:57.771Z,30.10
2018-05-14T12:02:25.364Z,29.53
2018-05-14T12:04:52.798Z,30.10
2018-05-14T12:07:20.368Z,29.70
2018-05-14T12:09:47.806Z,30.10
2018-05-14T12:12:15.278Z,32.03
2018-05-14T12:14:42.691Z,30.87
2018-05-14T12:17:10.131Z,31.30
2018-05-14T12:19:37.576Z,30.13
2018-05-14T12:22:05.033Z,35.17
2018-05-14T12:24:32.568Z,32.53
2018-05-14T12:27:00.030Z,32.10
2018-05-14T12:29:28.238Z,31.33
2018-05-14T12:31:56.464Z,28.30
2018-05-14T12:34:23.894Z,27.90
2018-05-14T12:36:51.343Z,27.43
2018-05-14T12:39:18.802Z,31.27
2018-05-14T12:41:46.249Z,33.73
2018-05-14T12:44:13.687Z,30.60
2018-05-14T12:46:41.142Z,30.43
2018-05-14T12:49:08.577Z,31.13
2018-05-14T12:51:36.034Z,28.90
2018-05-14T12:54:04.242Z,28.37
2018-05-14T12:56:31.698Z,32.40
2018-05-14T12:58:59.133Z,30.93
2018-05-14T13:01:26.610Z,29.67
2018-05-14T13:03:54.058Z,30.80
2018-05-14T13:06:21.495Z,31.37
2018-05-14T13:08:48.938Z,32.37
2018-05-14T13:11:16.444Z,30.23
2018-05-14T13:13:43.903Z,31.43
2018-05-14T13:16:11.337Z,32.10
2018-05-14T13:18:38.786Z,30.57
2018-05-14T13:21:06.278Z,27.37
2018-05-14T13:23:33.731Z,26.20
2018-05-14T13:26:01.187Z,26.27
2018-05-14T13:28:28.623Z,27.40
2018-05-14T13:30:56.095Z,30.37
2018-05-14T13:33:23.533Z,28.67
2018-05-14T13:35:50.983Z,31.30
2018-05-14T13:38:18.437Z,32.27
2018-05-14T13:40:45.878Z,31.27
2018-05-14T13:43:13.994Z,30.10
2018-05-14T13:45:41.439Z,33.67
2018-05-14T13:48:09.067Z,33.33
2018-05-14T13:50:37.275Z,32.73
2018-05-14T13:53:04.762Z,32.47
2018-05-14T13:55:32.200Z,31.40
2018-05-14T13:58:00.425Z,33.17
2018-05-14T14:00:27.878Z,33.43
2018-05-14T14:02:56.081Z,32.97
2018-05-14T14:05:24.314Z,32.57
2018-05-14T14:07:51.756Z,33.80
2018-05-14T14:10:19.216Z,33.20
2018-05-14T14:12:47.437Z,32.77
2018-05-14T14:15:14.874Z,31.33
2018-05-14T14:17:42.332Z,32.40
2018-05-14T14:20:09.769Z,31.53
2018-05-14T14:22:37.351Z,37.40
2018-05-14T14:25:05.549Z,33.20
2018-05-14T14:27:32.990Z,32.57
2018-05-14T14:30:00.436Z,31.93
2018-05-14T14:32:27.902Z,36.13
2018-05-14T14:34:55.349Z,35.07
2018-05-14T14:37:22.820Z,33.37
2018-05-14T14:39:50.266Z,33.57
2018-05-14T14:42:18.481Z,32.30
2018-05-14T14:44:45.923Z,32.47
2018-05-14T14:47:13.386Z,35.97
2018-05-14T14:49:40.825Z,31.93
2018-05-14T14:52:08.286Z,31.10
2018-05-14T14:54:35.743Z,32.73
2018-05-14T14:57:04.129Z,32.13
2018-05-14T14:59:31.578Z,30.37
2018-05-14T15:01:59.054Z,27.40
2018-05-14T15:04:26.573Z,25.47
2018-05-14T15:06:54.050Z,25.47
2018-05-14T15:09:21.545Z,24.27
2018-05-14T15:11:49.005Z,29.23
2018-05-14T15:14:16.456Z,26.87
2018-05-14T15:16:43.902Z,13.80
2018-05-14T15:19:11.355Z,15.87
2018-05-14T15:21:38.798Z,14.83
2018-05-14T15:24:06.389Z,17.13
2018-05-14T15:26:33.842Z,17.00
2018-05-14T15:29:01.351Z,15.70
2018-05-14T15:31:28.807Z,14.60
2018-05-14T15:33:56.265Z,16.30
2018-05-14T15:36:24.489Z,16.30
2018-05-14T15:38:51.934Z,16.10
2018-05-14T15:41:19.404Z,17.93
2018-05-14T15:43:46.857Z,20.57
2018-05-14T15:46:15.226Z,20.83
2018-05-14T15:48:42.723Z,20.20
2018-05-14T15:51:10.200Z,23.37
2018-05-14T15:53:38.428Z,26.13
2018-05-14T15:56:05.955Z,26.50
2018-05-14T15:58:33.416Z,29.90
2018-05-14T16:01:00.886Z,28.87
2018-05-14T16:03:28.488Z,31.23
2018-05-14T16:05:56.584Z,31.53
2018-05-14T16:08:24.063Z,33.30
2018-05-14T16:10:51.500Z,37.80
2018-05-14T16:13:18.955Z,33.63
2018-05-14T16:15:46.412Z,33.17
2018-05-14T16:18:13.876Z,33.40
2018-05-14T16:20:41.393Z,31.00
2018-05-14T16:23:08.858Z,31.33
2018-05-14T16:25:36.351Z,33.57
2018-05-14T16:28:03.818Z,30.47
2018-05-14T16:30:31.276Z,31.20
2018-05-14T16:32:58.725Z,28.30
2018-05-14T16:35:26.227Z,27.43
2018-05-14T16:37:53.953Z,28.00
2018-05-14T16:40:21.402Z,25.57
2018-05-14T16:42:48.855Z,20.30
2018-05-14T16:45:17.072Z,21.30
2018-05-14T16:47:44.534Z,19.43
2018-05-14T16:50:12.783Z,18.97
2018-05-14T16:52:40.226Z,16.20
2018-05-14T16:55:07.710Z,13.93
2018-05-14T16:57:36.033Z,13.40
2018-05-14T17:00:03.458Z,11.63
2018-05-14T17:02:30.946Z,11.97
2018-05-14T17:04:59.155Z,9.93
2018-05-14T17:07:26.606Z,9.80
2018-05-14T17:09:54.069Z,10.07
2018-05-14T17:12:21.523Z,11.30
2018-05-14T17:14:48.976Z,8.90
2018-05-14T17:17:16.430Z,8.13
2018-05-14T17:19:44.718Z,8.30
2018-05-14T17:22:12.168Z,7.57
2018-05-14T17:24:39.628Z,7.33
2018-05-14T17:27:07.068Z,7.00
2018-05-14T17:29:34.511Z,6.73
2018-05-14T17:32:01.989Z,6.30
2018-05-14T17:34:29.406Z,5.40
2018-05-14T17:36:56.939Z,5.77
2018-05-14T17:39:24.402Z,5.47
2018-05-14T17:41:51.831Z,6.50
2018-05-14T17:44:19.330Z,6.03
2018-05-14T17:46:46.764Z,5.43
2018-05-14T17:49:14.999Z,6.40
2018-05-14T17:51:42.450Z,5.13
2018-05-14T17:54:09.897Z,5.37
2018-05-14T17:56:37.330Z,5.03
2018-05-14T17:59:04.803Z,12.60
2018-05-14T18:01:32.251Z,5.30
2018-05-14T18:03:59.705Z,7.17
2018-05-14T18:06:27.149Z,5.27
2018-05-14T18:08:54.634Z,4.27
2018-05-14T18:11:22.084Z,4.60
2018-05-14T18:13:49.539Z,4.40
2018-05-14T18:16:16.975Z,4.73
2018-05-14T18:18:44.445Z,4.77
2018-05-14T18:21:12.655Z,4.60
2018-05-14T18:23:46.817Z,5.37
2018-05-14T18:26:17.046Z,5.00
2018-05-14T18:28:54.683Z,5.13
2018-05-14T18:31:27.020Z,6.70
2018-05-14T18:33:54.620Z,6.37
2018-05-14T18:36:22.083Z,6.30
2018-05-14T18:38:49.656Z,5.70
2018-05-14T18:41:17.166Z,5.97
2018-05-14T18:43:44.713Z,6.00
2018-05-14T18:46:12.162Z,6.13
2018-05-14T18:48:39.608Z,6.03
2018-05-14T18:51:07.379Z,6.90
2018-05-14T18:53:34.839Z,6.87
2018-05-14T18:56:03.049Z,6.03
2018-05-14T18:58:30.665Z,7.30
2018-05-14T19:00:58.183Z,6.70
2018-05-14T19:03:25.906Z,6.17
2018-05-14T19:05:53.484Z,6.13
2018-05-14T19:08:21.049Z,7.03
2018-05-14T19:10:54.210Z,7.47
2018-05-14T19:13:22.696Z,8.10
2018-05-14T19:18:56.677Z,7.70
2018-05-14T19:21:24.962Z,7.43
2018-05-14T19:23:53.242Z,8.17
2018-05-14T19:26:20.686Z,7.50
2018-05-14T19:28:53.873Z,7.70
2018-05-14T19:31:21.323Z,8.10
2018-05-14T19:33:54.525Z,8.03
2018-05-14T19:36:21.979Z,7.77
2018-05-14T19:38:49.437Z,7.83
2018-05-14T19:41:17.640Z,8.37
2018-05-14T19:43:45.099Z,7.40
2018-05-14T19:46:12.550Z,8.13
2018-05-14T19:48:40.036Z,8.93
2018-05-14T19:51:07.488Z,7.70
2018-05-14T19:53:34.948Z,8.10
2018-05-14T19:56:02.426Z,8.00
2018-05-14T19:58:29.874Z,8.40
2018-05-14T20:00:57.422Z,7.70
2018-05-14T20:03:24.887Z,7.33
2018-05-14T20:05:52.337Z,7.40
2018-05-14T20:08:19.787Z,7.93
2018-05-14T20:10:47.253Z,8.20
2018-05-14T20:13:14.685Z,8.47
2018-05-14T20:15:42.141Z,8.47
2018-05-14T20:18:09.622Z,8.30
2018-05-14T20:20:37.054Z,8.00
2018-05-14T20:23:04.585Z,13.07
2018-05-14T20:25:32.031Z,11.50
2018-05-14T20:27:59.544Z,13.07
2018-05-14T20:30:27.719Z,14.43
2018-05-14T20:32:55.171Z,9.60
2018-05-14T20:35:22.614Z,9.40
2018-05-14T20:37:50.064Z,11.07
2018-05-14T20:40:17.515Z,9.70
2018-05-14T20:42:44.971Z,9.63
2018-05-14T20:45:12.443Z,10.40
2018-05-14T20:47:40.638Z,12.20
2018-05-14T20:50:09.693Z,12.60
2018-05-14T20:52:37.275Z,12.93
2018-05-14T20:55:05.526Z,13.20
2018-05-14T20:57:33.046Z,16.03
2018-05-14T21:00:00.480Z,15.63
2018-05-14T21:02:27.935Z,15.40
2018-05-14T21:04:55.459Z,16.63
2018-05-14T21:07:23.654Z,17.00
2018-05-14T21:09:51.111Z,19.53
2018-05-14T21:12:18.566Z,20.37
2018-05-14T21:14:46.116Z,18.33
2018-05-14T21:17:13.646Z,20.43
2018-05-14T21:19:41.133Z,19.93
2018-05-14T21:22:09.354Z,18.47
2018-05-14T21:24:36.802Z,19.97
2018-05-14T21:27:04.257Z,19.00
2018-05-14T21:29:31.702Z,20.03
2018-05-14T21:31:59.159Z,19.93
2018-05-14T21:34:26.628Z,19.87
2018-05-14T21:36:54.071Z,20.40
2018-05-14T21:39:21.526Z,19.17
2018-05-14T21:41:48.983Z,21.23
2018-05-14T21:44:16.426Z,18.87
2018-05-14T21:46:43.898Z,19.43
2018-05-14T21:49:11.347Z,20.53
2018-05-14T21:51:39.604Z,20.20
2018-05-14T21:54:07.269Z,20.30
2018-05-14T21:56:35.553Z,22.17
2018-05-14T21:59:02.998Z,20.80
2018-05-14T22:01:31.267Z,21.73
2018-05-14T22:03:58.734Z,22.00
2018-05-14T22:06:26.204Z,25.20
2018-05-14T22:08:54.263Z,20.60
2018-05-14T22:11:21.726Z,19.53
2018-05-14T22:13:49.935Z,22.63
2018-05-14T22:16:17.406Z,22.13
2018-05-14T22:18:44.868Z,24.20
2018-05-14T22:21:13.444Z,23.17
2018-05-14T22:23:41.814Z,22.83
2018-05-14T22:26:09.281Z,22.30
2018-05-14T22:28:36.730Z,22.93
2018-05-14T22:31:04.180Z,22.50
2018-05-14T22:33:31.884Z,22.53
2018-05-14T22:36:00.111Z,23.70
2018-05-14T22:38:28.358Z,23.10
2018-05-14T22:40:55.845Z,28.47
2018-05-14T22:43:24.073Z,24.50
2018-05-14T22:45:51.526Z,28.13
2018-05-14T22:48:18.978Z,27.00
2018-05-14T22:50:46.435Z,27.30
2018-05-14T22:53:14.640Z,29.00
2018-05-14T22:55:42.126Z,28.73
2018-05-14T22:58:09.574Z,29.10
2018-05-14T23:00:37.015Z,29.83
2018-05-14T23:03:05.225Z,28.67
2018-05-14T23:05:32.671Z,26.83
2018-05-14T23:08:00.377Z,27.63
2018-05-14T23:10:27.878Z,26.50
2018-05-14T23:12:55.338Z,27.20
2018-05-14T23:15:22.788Z,26.77
2018-05-14T23:17:50.245Z,27.53
2018-05-14T23:20:18.459Z,27.67
2018-05-14T23:22:45.893Z,27.43
2018-05-14T23:25:13.338Z,27.07
2018-05-14T23:27:40.789Z,27.37
2018-05-14T23:30:08.240Z,27.10
2018-05-14T23:32:35.696Z,27.20
2018-05-14T23:35:03.151Z,27.17
2018-05-14T23:37:30.627Z,25.83
2018-05-14T23:39:58.070Z,26.57
2018-05-14T23:42:25.527Z,25.37
2018-05-14T23:44:52.992Z,24.27
2018-05-14T23:47:20.438Z,24.50
2018-05-14T23:49:47.888Z,21.47
2018-05-14T23:52:15.338Z,20.40
2018-05-14T23:54:42.785Z,21.50
2018-05-14T23:57:10.230Z,23.60
2018-05-14T23:59:37.686Z,21.50
